sensor_id;sensor_type;location;lat;lon;timestamp;P1;durP1;ratioP1;P2;durP2;ratioP2
5157;SDS011;2598;52.364;9.772;2022-07-18T00:01:01;9.80;;;2.70;;
5157;SDS011;2598;52.364;9.772;2022-07-18T00:03:28;8.83;;;2.10;;
5157;SDS011;2598;52.364;9.772;2022-07-18T00:05:54;10.90;;;2.43;;
5157;SDS011;2598;52.364;9.772;2022-07-18T00:08:20;9.80;;;2.63;;
5157;SDS011;2598;52.364;9.772;2022-07-18T00:10:46;10.30;;;2.60;;
5157;SDS011;2598;52.364;9.772;2022-07-18T00:13:12;10.37;;;2.37;;
5157;SDS011;2598;52.364;9.772;2022-07-18T00:15:38;10.40;;;2.30;;
5157;SDS011;2598;52.364;9.772;2022-07-18T00:18:04;9.33;;;2.33;;
5157;SDS011;2598;52.364;9.772;2022-07-18T00:20:30;8.93;;;2.33;;
5157;SDS011;2598;52.364;9.772;2022-07-18T00:22:56;11.87;;;2.80;;
5157;SDS011;2598;52.364;9.772;2022-07-18T00:25:22;14.07;;;2.37;;
5157;SDS011;2598;52.364;9.772;2022-07-18T00:27:48;8.90;;;2.30;;
5157;SDS011;2598;52.364;9.772;2022-07-18T00:30:14;9.07;;;2.37;;
5157;SDS011;2598;52.364;9.772;2022-07-18T00:32:40;9.10;;;2.23;;
5157;SDS011;2598;52.364;9.772;2022-07-18T00:35:06;9.50;;;2.40;;
5157;SDS011;2598;52.364;9.772;2022-07-18T00:37:33;11.13;;;2.60;;
5157;SDS011;2598;52.364;9.772;2022-07-18T00:39:59;9.10;;;2.23;;
5157;SDS011;2598;52.364;9.772;2022-07-18T00:42:25;10.00;;;2.40;;
5157;SDS011;2598;52.364;9.772;2022-07-18T00:44:54;10.37;;;2.40;;
5157;SDS011;2598;52.364;9.772;2022-07-18T00:47:20;9.70;;;2.30;;
5157;SDS011;2598;52.364;9.772;2022-07-18T00:49:47;19.23;;;3.10;;
5157;SDS011;2598;52.364;9.772;2022-07-18T00:52:13;11.10;;;2.77;;
5157;SDS011;2598;52.364;9.772;2022-07-18T00:54:39;9.50;;;2.47;;
5157;SDS011;2598;52.364;9.772;2022-07-18T00:57:05;10.53;;;2.10;;
5157;SDS011;2598;52.364;9.772;2022-07-18T00:59:31;9.90;;;2.47;;
5157;SDS011;2598;52.364;9.772;2022-07-18T01:02:17;8.90;;;2.40;;
5157;SDS011;2598;52.364;9.772;2022-07-18T01:04:43;10.67;;;2.60;;
5157;SDS011;2598;52.364;9.772;2022-07-18T01:07:09;10.17;;;2.60;;
5157;SDS011;2598;52.364;9.772;2022-07-18T01:09:35;10.33;;;2.57;;
5157;SDS011;2598;52.364;9.772;2022-07-18T01:12:01;9.33;;;2.10;;
5157;SDS011;2598;52.364;9.772;2022-07-18T01:14:28;10.73;;;2.30;;
5157;SDS011;2598;52.364;9.772;2022-07-18T01:16:54;9.63;;;2.20;;
5157;SDS011;2598;52.364;9.772;2022-07-18T01:19:20;12.30;;;2.50;;
5157;SDS011;2598;52.364;9.772;2022-07-18T01:21:46;9.53;;;2.23;;
5157;SDS011;2598;52.364;9.772;2022-07-18T01:24:12;9.17;;;2.30;;
5157;SDS011;2598;52.364;9.772;2022-07-18T01:26:38;9.77;;;2.50;;
5157;SDS011;2598;52.364;9.772;2022-07-18T01:29:04;12.00;;;2.40;;
5157;SDS011;2598;52.364;9.772;2022-07-18T01:31:30;10.67;;;2.70;;
5157;SDS011;2598;52.364;9.772;2022-07-18T01:33:58;10.30;;;2.30;;
5157;SDS011;2598;52.364;9.772;2022-07-18T01:36:25;10.30;;;2.53;;
5157;SDS011;2598;52.364;9.772;2022-07-18T01:38:51;9.87;;;2.13;;
5157;SDS011;2598;52.364;9.772;2022-07-18T01:41:17;9.87;;;2.70;;
5157;SDS011;2598;52.364;9.772;2022-07-18T01:43:43;11.43;;;2.47;;
5157;SDS011;2598;52.364;9.772;2022-07-18T01:46:09;10.63;;;2.70;;
5157;SDS011;2598;52.364;9.772;2022-07-18T01:48:36;10.07;;;2.80;;
5157;SDS011;2598;52.364;9.772;2022-07-18T01:51:03;10.47;;;2.10;;
5157;SDS011;2598;52.364;9.772;2022-07-18T01:53:29;9.93;;;2.40;;
5157;SDS011;2598;52.364;9.772;2022-07-18T01:55:55;11.77;;;2.53;;
5157;SDS011;2598;52.364;9.772;2022-07-18T01:58:21;11.20;;;2.60;;
5157;SDS011;2598;52.364;9.772;2022-07-18T02:00:47;11.30;;;2.33;;
5157;SDS011;2598;52.364;9.772;2022-07-18T02:03:13;11.57;;;2.80;;
5157;SDS011;2598;52.364;9.772;2022-07-18T02:05:39;9.70;;;2.10;;
5157;SDS011;2598;52.364;9.772;2022-07-18T02:08:05;8.47;;;2.10;;
5157;SDS011;2598;52.364;9.772;2022-07-18T02:10:31;8.90;;;2.20;;
5157;SDS011;2598;52.364;9.772;2022-07-18T02:12:57;10.80;;;2.57;;
5157;SDS011;2598;52.364;9.772;2022-07-18T02:15:23;9.60;;;2.30;;
5157;SDS011;2598;52.364;9.772;2022-07-18T02:17:49;9.17;;;2.70;;
5157;SDS011;2598;52.364;9.772;2022-07-18T02:20:15;9.80;;;2.07;;
5157;SDS011;2598;52.364;9.772;2022-07-18T02:22:41;10.27;;;2.53;;
5157;SDS011;2598;52.364;9.772;2022-07-18T02:25:08;9.30;;;2.20;;
5157;SDS011;2598;52.364;9.772;2022-07-18T02:27:34;10.60;;;2.00;;
5157;SDS011;2598;52.364;9.772;2022-07-18T02:30:00;9.50;;;2.53;;
5157;SDS011;2598;52.364;9.772;2022-07-18T02:32:26;9.97;;;2.17;;
5157;SDS011;2598;52.364;9.772;2022-07-18T02:34:52;8.93;;;2.23;;
5157;SDS011;2598;52.364;9.772;2022-07-18T02:37:19;12.70;;;2.70;;
5157;SDS011;2598;52.364;9.772;2022-07-18T02:39:45;10.53;;;2.33;;
5157;SDS011;2598;52.364;9.772;2022-07-18T02:42:11;11.07;;;2.00;;
5157;SDS011;2598;52.364;9.772;2022-07-18T02:44:37;10.20;;;2.50;;
5157;SDS011;2598;52.364;9.772;2022-07-18T02:47:03;11.43;;;2.03;;
5157;SDS011;2598;52.364;9.772;2022-07-18T02:49:29;9.13;;;2.03;;
5157;SDS011;2598;52.364;9.772;2022-07-18T02:51:58;8.80;;;2.10;;
5157;SDS011;2598;52.364;9.772;2022-07-18T02:54:24;12.10;;;2.00;;
5157;SDS011;2598;52.364;9.772;2022-07-18T02:56:51;9.50;;;2.60;;
5157;SDS011;2598;52.364;9.772;2022-07-18T02:59:17;11.37;;;2.73;;
5157;SDS011;2598;52.364;9.772;2022-07-18T03:01:43;8.07;;;2.00;;
5157;SDS011;2598;52.364;9.772;2022-07-18T03:04:09;8.30;;;1.93;;
5157;SDS011;2598;52.364;9.772;2022-07-18T03:06:35;11.80;;;2.40;;
5157;SDS011;2598;52.364;9.772;2022-07-18T03:09:02;8.97;;;2.37;;
5157;SDS011;2598;52.364;9.772;2022-07-18T03:11:28;12.57;;;2.13;;
5157;SDS011;2598;52.364;9.772;2022-07-18T03:13:54;9.80;;;1.90;;
5157;SDS011;2598;52.364;9.772;2022-07-18T03:16:20;11.93;;;2.40;;
5157;SDS011;2598;52.364;9.772;2022-07-18T03:18:46;9.83;;;2.30;;
5157;SDS011;2598;52.364;9.772;2022-07-18T03:21:12;10.00;;;2.40;;
5157;SDS011;2598;52.364;9.772;2022-07-18T03:23:38;12.40;;;2.20;;
5157;SDS011;2598;52.364;9.772;2022-07-18T03:26:04;8.87;;;2.30;;
5157;SDS011;2598;52.364;9.772;2022-07-18T03:28:30;9.40;;;2.07;;
5157;SDS011;2598;52.364;9.772;2022-07-18T03:30:56;12.03;;;2.50;;
5157;SDS011;2598;52.364;9.772;2022-07-18T03:33:26;11.53;;;2.30;;
5157;SDS011;2598;52.364;9.772;2022-07-18T03:35:52;11.37;;;2.00;;
5157;SDS011;2598;52.364;9.772;2022-07-18T03:38:18;11.63;;;2.70;;
5157;SDS011;2598;52.364;9.772;2022-07-18T03:40:44;10.63;;;2.50;;
5157;SDS011;2598;52.364;9.772;2022-07-18T03:43:10;12.33;;;2.03;;
5157;SDS011;2598;52.364;9.772;2022-07-18T03:45:36;8.63;;;2.50;;
5157;SDS011;2598;52.364;9.772;2022-07-18T03:48:02;8.50;;;2.17;;
5157;SDS011;2598;52.364;9.772;2022-07-18T03:50:28;8.80;;;1.97;;
5157;SDS011;2598;52.364;9.772;2022-07-18T03:52:54;8.90;;;2.03;;
5157;SDS011;2598;52.364;9.772;2022-07-18T03:55:20;8.93;;;2.10;;
5157;SDS011;2598;52.364;9.772;2022-07-18T03:57:47;12.40;;;2.30;;
5157;SDS011;2598;52.364;9.772;2022-07-18T04:00:13;8.90;;;2.20;;
5157;SDS011;2598;52.364;9.772;2022-07-18T04:02:40;9.97;;;2.47;;
5157;SDS011;2598;52.364;9.772;2022-07-18T04:05:06;9.67;;;1.77;;
5157;SDS011;2598;52.364;9.772;2022-07-18T04:07:32;8.80;;;2.00;;
5157;SDS011;2598;52.364;9.772;2022-07-18T04:09:58;9.17;;;1.90;;
5157;SDS011;2598;52.364;9.772;2022-07-18T04:12:24;9.43;;;2.13;;
5157;SDS011;2598;52.364;9.772;2022-07-18T04:14:50;10.03;;;1.83;;
5157;SDS011;2598;52.364;9.772;2022-07-18T04:17:16;43.83;;;3.10;;
5157;SDS011;2598;52.364;9.772;2022-07-18T04:19:42;11.20;;;2.10;;
5157;SDS011;2598;52.364;9.772;2022-07-18T04:22:08;13.20;;;2.17;;
5157;SDS011;2598;52.364;9.772;2022-07-18T04:24:34;10.30;;;2.30;;
5157;SDS011;2598;52.364;9.772;2022-07-18T04:27:00;9.63;;;2.10;;
5157;SDS011;2598;52.364;9.772;2022-07-18T04:29:26;9.60;;;2.60;;
5157;SDS011;2598;52.364;9.772;2022-07-18T04:31:52;10.70;;;2.47;;
5157;SDS011;2598;52.364;9.772;2022-07-18T04:34:18;11.60;;;2.43;;
5157;SDS011;2598;52.364;9.772;2022-07-18T04:36:44;18.10;;;2.77;;
5157;SDS011;2598;52.364;9.772;2022-07-18T04:39:10;12.07;;;2.57;;
5157;SDS011;2598;52.364;9.772;2022-07-18T04:41:36;13.23;;;2.40;;
5157;SDS011;2598;52.364;9.772;2022-07-18T04:44:02;12.93;;;2.40;;
5157;SDS011;2598;52.364;9.772;2022-07-18T04:46:28;11.27;;;2.40;;
5157;SDS011;2598;52.364;9.772;2022-07-18T04:48:54;15.20;;;2.43;;
5157;SDS011;2598;52.364;9.772;2022-07-18T04:51:20;9.57;;;2.37;;
5157;SDS011;2598;52.364;9.772;2022-07-18T04:53:46;8.90;;;2.00;;
5157;SDS011;2598;52.364;9.772;2022-07-18T04:56:13;8.77;;;2.17;;
5157;SDS011;2598;52.364;9.772;2022-07-18T04:58:39;10.47;;;2.13;;
5157;SDS011;2598;52.364;9.772;2022-07-18T05:01:05;13.10;;;2.40;;
5157;SDS011;2598;52.364;9.772;2022-07-18T05:03:31;8.80;;;2.03;;
5157;SDS011;2598;52.364;9.772;2022-07-18T05:05:57;10.37;;;1.80;;
5157;SDS011;2598;52.364;9.772;2022-07-18T05:08:25;12.33;;;2.17;;
5157;SDS011;2598;52.364;9.772;2022-07-18T05:10:51;10.00;;;2.20;;
5157;SDS011;2598;52.364;9.772;2022-07-18T05:13:17;9.77;;;2.10;;
5157;SDS011;2598;52.364;9.772;2022-07-18T05:15:43;12.50;;;1.97;;
5157;SDS011;2598;52.364;9.772;2022-07-18T05:18:09;9.90;;;1.80;;
5157;SDS011;2598;52.364;9.772;2022-07-18T05:20:35;18.47;;;2.10;;
5157;SDS011;2598;52.364;9.772;2022-07-18T05:23:01;9.17;;;1.70;;
5157;SDS011;2598;52.364;9.772;2022-07-18T05:25:27;9.77;;;2.07;;
5157;SDS011;2598;52.364;9.772;2022-07-18T05:27:53;9.40;;;1.97;;
5157;SDS011;2598;52.364;9.772;2022-07-18T05:30:20;13.07;;;2.53;;
5157;SDS011;2598;52.364;9.772;2022-07-18T05:32:46;10.70;;;1.93;;
5157;SDS011;2598;52.364;9.772;2022-07-18T05:35:12;8.30;;;1.93;;
5157;SDS011;2598;52.364;9.772;2022-07-18T05:37:39;10.10;;;2.00;;
5157;SDS011;2598;52.364;9.772;2022-07-18T05:40:06;8.03;;;1.60;;
5157;SDS011;2598;52.364;9.772;2022-07-18T05:42:34;9.80;;;1.53;;
5157;SDS011;2598;52.364;9.772;2022-07-18T05:44:59;11.00;;;1.93;;
5157;SDS011;2598;52.364;9.772;2022-07-18T05:47:25;11.13;;;1.80;;
5157;SDS011;2598;52.364;9.772;2022-07-18T05:49:51;11.77;;;1.90;;
5157;SDS011;2598;52.364;9.772;2022-07-18T05:52:17;11.37;;;1.87;;
5157;SDS011;2598;52.364;9.772;2022-07-18T05:54:44;8.90;;;1.60;;
5157;SDS011;2598;52.364;9.772;2022-07-18T05:57:10;8.27;;;1.70;;
5157;SDS011;2598;52.364;9.772;2022-07-18T05:59:36;7.87;;;1.83;;
5157;SDS011;2598;52.364;9.772;2022-07-18T06:02:02;9.33;;;1.90;;
5157;SDS011;2598;52.364;9.772;2022-07-18T06:04:28;8.40;;;1.70;;
5157;SDS011;2598;52.364;9.772;2022-07-18T06:07:03;12.20;;;1.80;;
5157;SDS011;2598;52.364;9.772;2022-07-18T06:09:37;12.60;;;1.60;;
5157;SDS011;2598;52.364;9.772;2022-07-18T06:12:04;8.70;;;1.50;;
5157;SDS011;2598;52.364;9.772;2022-07-18T06:14:30;11.10;;;2.00;;
5157;SDS011;2598;52.364;9.772;2022-07-18T06:16:57;7.50;;;1.57;;
5157;SDS011;2598;52.364;9.772;2022-07-18T06:19:23;7.80;;;1.47;;
5157;SDS011;2598;52.364;9.772;2022-07-18T06:21:50;11.50;;;1.80;;
5157;SDS011;2598;52.364;9.772;2022-07-18T06:24:16;10.70;;;1.30;;
5157;SDS011;2598;52.364;9.772;2022-07-18T06:26:42;10.50;;;1.60;;
5157;SDS011;2598;52.364;9.772;2022-07-18T06:29:08;10.60;;;1.80;;
5157;SDS011;2598;52.364;9.772;2022-07-18T06:31:33;9.57;;;1.67;;
5157;SDS011;2598;52.364;9.772;2022-07-18T06:33:59;14.40;;;1.40;;
5157;SDS011;2598;52.364;9.772;2022-07-18T06:36:25;8.47;;;1.63;;
5157;SDS011;2598;52.364;9.772;2022-07-18T06:38:52;7.80;;;1.60;;
5157;SDS011;2598;52.364;9.772;2022-07-18T06:41:18;8.93;;;1.70;;
5157;SDS011;2598;52.364;9.772;2022-07-18T06:43:51;10.03;;;2.03;;
5157;SDS011;2598;52.364;9.772;2022-07-18T06:46:17;8.03;;;1.50;;
5157;SDS011;2598;52.364;9.772;2022-07-18T06:48:44;7.53;;;1.53;;
5157;SDS011;2598;52.364;9.772;2022-07-18T06:51:10;8.70;;;1.63;;
5157;SDS011;2598;52.364;9.772;2022-07-18T06:53:36;9.57;;;1.70;;
5157;SDS011;2598;52.364;9.772;2022-07-18T06:56:02;9.70;;;1.83;;
5157;SDS011;2598;52.364;9.772;2022-07-18T06:58:30;9.17;;;1.60;;
5157;SDS011;2598;52.364;9.772;2022-07-18T07:00:56;10.70;;;1.60;;
5157;SDS011;2598;52.364;9.772;2022-07-18T07:03:22;10.00;;;1.70;;
5157;SDS011;2598;52.364;9.772;2022-07-18T07:05:48;11.10;;;1.90;;
5157;SDS011;2598;52.364;9.772;2022-07-18T07:08:14;10.43;;;2.10;;
5157;SDS011;2598;52.364;9.772;2022-07-18T07:10:40;10.50;;;2.00;;
5157;SDS011;2598;52.364;9.772;2022-07-18T07:13:06;8.20;;;1.63;;
5157;SDS011;2598;52.364;9.772;2022-07-18T07:15:32;8.43;;;1.57;;
5157;SDS011;2598;52.364;9.772;2022-07-18T07:17:58;9.03;;;1.90;;
5157;SDS011;2598;52.364;9.772;2022-07-18T07:20:24;7.83;;;1.50;;
5157;SDS011;2598;52.364;9.772;2022-07-18T07:22:51;8.60;;;1.60;;
5157;SDS011;2598;52.364;9.772;2022-07-18T07:25:18;7.30;;;1.40;;
5157;SDS011;2598;52.364;9.772;2022-07-18T07:27:44;9.20;;;1.70;;
5157;SDS011;2598;52.364;9.772;2022-07-18T07:30:11;8.60;;;1.67;;
5157;SDS011;2598;52.364;9.772;2022-07-18T07:32:38;10.60;;;1.90;;
5157;SDS011;2598;52.364;9.772;2022-07-18T07:35:04;7.80;;;1.33;;
5157;SDS011;2598;52.364;9.772;2022-07-18T07:37:37;7.50;;;1.60;;
5157;SDS011;2598;52.364;9.772;2022-07-18T07:40:03;9.70;;;1.73;;
5157;SDS011;2598;52.364;9.772;2022-07-18T07:42:29;8.40;;;1.80;;
5157;SDS011;2598;52.364;9.772;2022-07-18T07:44:55;11.10;;;1.80;;
5157;SDS011;2598;52.364;9.772;2022-07-18T07:47:21;11.83;;;1.60;;
5157;SDS011;2598;52.364;9.772;2022-07-18T07:49:47;10.90;;;2.10;;
5157;SDS011;2598;52.364;9.772;2022-07-18T07:52:13;11.10;;;1.70;;
5157;SDS011;2598;52.364;9.772;2022-07-18T07:54:42;7.23;;;1.53;;
5157;SDS011;2598;52.364;9.772;2022-07-18T07:57:09;13.83;;;1.43;;
5157;SDS011;2598;52.364;9.772;2022-07-18T07:59:36;12.13;;;1.30;;
5157;SDS011;2598;52.364;9.772;2022-07-18T08:02:02;9.70;;;1.73;;
5157;SDS011;2598;52.364;9.772;2022-07-18T08:04:28;12.50;;;1.63;;
5157;SDS011;2598;52.364;9.772;2022-07-18T08:06:54;9.40;;;1.80;;
5157;SDS011;2598;52.364;9.772;2022-07-18T08:09:20;8.80;;;1.30;;
5157;SDS011;2598;52.364;9.772;2022-07-18T08:11:46;8.17;;;1.60;;
5157;SDS011;2598;52.364;9.772;2022-07-18T08:14:12;11.53;;;1.70;;
5157;SDS011;2598;52.364;9.772;2022-07-18T08:16:38;8.50;;;1.67;;
5157;SDS011;2598;52.364;9.772;2022-07-18T08:19:04;8.80;;;1.90;;
5157;SDS011;2598;52.364;9.772;2022-07-18T08:21:30;9.90;;;1.80;;
5157;SDS011;2598;52.364;9.772;2022-07-18T08:23:56;12.87;;;2.20;;
5157;SDS011;2598;52.364;9.772;2022-07-18T08:26:22;8.60;;;1.37;;
5157;SDS011;2598;52.364;9.772;2022-07-18T08:28:48;13.30;;;1.63;;
5157;SDS011;2598;52.364;9.772;2022-07-18T08:31:14;8.50;;;1.60;;
5157;SDS011;2598;52.364;9.772;2022-07-18T08:33:41;11.03;;;2.00;;
5157;SDS011;2598;52.364;9.772;2022-07-18T08:36:07;11.30;;;1.90;;
5157;SDS011;2598;52.364;9.772;2022-07-18T08:38:33;9.97;;;2.20;;
5157;SDS011;2598;52.364;9.772;2022-07-18T08:40:59;7.90;;;2.00;;
5157;SDS011;2598;52.364;9.772;2022-07-18T08:43:26;9.63;;;2.40;;
5157;SDS011;2598;52.364;9.772;2022-07-18T08:45:54;7.87;;;1.53;;
5157;SDS011;2598;52.364;9.772;2022-07-18T08:48:21;7.53;;;1.50;;
5157;SDS011;2598;52.364;9.772;2022-07-18T08:50:48;9.10;;;1.70;;
5157;SDS011;2598;52.364;9.772;2022-07-18T08:53:15;8.60;;;1.40;;
5157;SDS011;2598;52.364;9.772;2022-07-18T08:55:42;7.07;;;1.40;;
5157;SDS011;2598;52.364;9.772;2022-07-18T08:58:08;6.77;;;1.30;;
5157;SDS011;2598;52.364;9.772;2022-07-18T09:00:35;8.13;;;1.40;;
5157;SDS011;2598;52.364;9.772;2022-07-18T09:03:02;10.03;;;1.87;;
5157;SDS011;2598;52.364;9.772;2022-07-18T09:05:28;8.20;;;1.83;;
5157;SDS011;2598;52.364;9.772;2022-07-18T09:10:47;7.50;;;1.70;;
5157;SDS011;2598;52.364;9.772;2022-07-18T09:13:14;9.83;;;1.90;;
5157;SDS011;2598;52.364;9.772;2022-07-18T09:15:56;10.13;;;1.90;;
5157;SDS011;2598;52.364;9.772;2022-07-18T09:18:26;9.10;;;1.90;;
5157;SDS011;2598;52.364;9.772;2022-07-18T09:21:26;12.20;;;2.10;;
5157;SDS011;2598;52.364;9.772;2022-07-18T09:23:47;7.57;;;1.90;;
5157;SDS011;2598;52.364;9.772;2022-07-18T09:26:16;8.67;;;1.90;;
5157;SDS011;2598;52.364;9.772;2022-07-18T09:28:59;8.10;;;2.00;;
5157;SDS011;2598;52.364;9.772;2022-07-18T09:31:24;9.73;;;2.13;;
5157;SDS011;2598;52.364;9.772;2022-07-18T09:33:54;8.00;;;1.87;;
5157;SDS011;2598;52.364;9.772;2022-07-18T09:36:20;7.07;;;1.47;;
5157;SDS011;2598;52.364;9.772;2022-07-18T09:38:46;7.50;;;1.70;;
5157;SDS011;2598;52.364;9.772;2022-07-18T09:41:12;8.73;;;1.87;;
5157;SDS011;2598;52.364;9.772;2022-07-18T09:43:39;9.73;;;2.00;;
5157;SDS011;2598;52.364;9.772;2022-07-18T09:46:05;7.17;;;1.83;;
5157;SDS011;2598;52.364;9.772;2022-07-18T09:48:32;7.77;;;2.20;;
5157;SDS011;2598;52.364;9.772;2022-07-18T09:50:58;11.17;;;2.40;;
5157;SDS011;2598;52.364;9.772;2022-07-18T09:53:32;6.87;;;1.70;;
5157;SDS011;2598;52.364;9.772;2022-07-18T09:55:59;7.70;;;1.50;;
5157;SDS011;2598;52.364;9.772;2022-07-18T09:58:27;8.43;;;2.03;;
5157;SDS011;2598;52.364;9.772;2022-07-18T10:00:53;7.67;;;2.13;;
5157;SDS011;2598;52.364;9.772;2022-07-18T10:03:20;8.33;;;2.23;;
5157;SDS011;2598;52.364;9.772;2022-07-18T10:05:47;7.20;;;1.80;;
5157;SDS011;2598;52.364;9.772;2022-07-18T10:08:15;8.13;;;2.03;;
5157;SDS011;2598;52.364;9.772;2022-07-18T10:10:42;9.70;;;1.90;;
5157;SDS011;2598;52.364;9.772;2022-07-18T10:13:09;8.07;;;2.70;;
5157;SDS011;2598;52.364;9.772;2022-07-18T10:15:36;9.40;;;2.27;;
5157;SDS011;2598;52.364;9.772;2022-07-18T10:18:03;7.83;;;2.03;;
5157;SDS011;2598;52.364;9.772;2022-07-18T10:20:36;8.53;;;2.37;;
5157;SDS011;2598;52.364;9.772;2022-07-18T10:23:07;9.43;;;2.53;;
5157;SDS011;2598;52.364;9.772;2022-07-18T10:25:34;10.70;;;2.60;;
5157;SDS011;2598;52.364;9.772;2022-07-18T10:30:42;8.73;;;2.70;;
5157;SDS011;2598;52.364;9.772;2022-07-18T10:33:35;8.97;;;3.20;;
5157;SDS011;2598;52.364;9.772;2022-07-18T10:35:58;8.20;;;2.60;;
5157;SDS011;2598;52.364;9.772;2022-07-18T10:38:25;7.83;;;2.27;;
5157;SDS011;2598;52.364;9.772;2022-07-18T10:43:47;7.67;;;2.40;;
5157;SDS011;2598;52.364;9.772;2022-07-18T10:46:13;12.03;;;2.20;;
5157;SDS011;2598;52.364;9.772;2022-07-18T10:51:06;11.43;;;3.27;;
5157;SDS011;2598;52.364;9.772;2022-07-18T10:56:17;8.47;;;2.60;;
5157;SDS011;2598;52.364;9.772;2022-07-18T10:58:43;10.90;;;3.00;;
5157;SDS011;2598;52.364;9.772;2022-07-18T11:01:12;12.07;;;2.83;;
5157;SDS011;2598;52.364;9.772;2022-07-18T11:03:40;8.50;;;2.73;;
5157;SDS011;2598;52.364;9.772;2022-07-18T11:06:06;8.27;;;2.50;;
5157;SDS011;2598;52.364;9.772;2022-07-18T11:08:32;8.73;;;2.73;;
5157;SDS011;2598;52.364;9.772;2022-07-18T11:15:54;8.77;;;2.80;;
5157;SDS011;2598;52.364;9.772;2022-07-18T11:18:20;10.13;;;3.03;;
5157;SDS011;2598;52.364;9.772;2022-07-18T11:20:46;9.23;;;3.13;;
5157;SDS011;2598;52.364;9.772;2022-07-18T11:25:45;8.80;;;3.17;;
5157;SDS011;2598;52.364;9.772;2022-07-18T11:28:11;8.90;;;3.10;;
5157;SDS011;2598;52.364;9.772;2022-07-18T11:30:37;9.07;;;3.10;;
5157;SDS011;2598;52.364;9.772;2022-07-18T11:33:04;8.23;;;2.80;;
5157;SDS011;2598;52.364;9.772;2022-07-18T11:35:30;9.00;;;2.90;;
5157;SDS011;2598;52.364;9.772;2022-07-18T11:37:56;8.97;;;3.03;;
5157;SDS011;2598;52.364;9.772;2022-07-18T11:40:23;8.27;;;2.57;;
5157;SDS011;2598;52.364;9.772;2022-07-18T11:42:49;8.67;;;2.67;;
5157;SDS011;2598;52.364;9.772;2022-07-18T11:45:15;8.17;;;2.40;;
5157;SDS011;2598;52.364;9.772;2022-07-18T11:47:45;13.60;;;2.63;;
5157;SDS011;2598;52.364;9.772;2022-07-18T11:50:13;12.23;;;2.80;;
5157;SDS011;2598;52.364;9.772;2022-07-18T11:52:39;8.57;;;2.40;;
5157;SDS011;2598;52.364;9.772;2022-07-18T11:55:05;10.43;;;2.73;;
5157;SDS011;2598;52.364;9.772;2022-07-18T11:57:32;8.03;;;2.53;;
5157;SDS011;2598;52.364;9.772;2022-07-18T11:59:59;8.80;;;2.77;;
5157;SDS011;2598;52.364;9.772;2022-07-18T12:02:25;8.87;;;2.97;;
5157;SDS011;2598;52.364;9.772;2022-07-18T12:04:51;8.07;;;2.43;;
5157;SDS011;2598;52.364;9.772;2022-07-18T12:07:18;8.63;;;2.30;;
5157;SDS011;2598;52.364;9.772;2022-07-18T12:09:45;10.93;;;2.50;;
5157;SDS011;2598;52.364;9.772;2022-07-18T12:12:11;8.30;;;2.63;;
5157;SDS011;2598;52.364;9.772;2022-07-18T12:14:37;9.30;;;2.43;;
5157;SDS011;2598;52.364;9.772;2022-07-18T12:17:04;8.57;;;2.43;;
5157;SDS011;2598;52.364;9.772;2022-07-18T12:19:34;7.60;;;2.60;;
5157;SDS011;2598;52.364;9.772;2022-07-18T12:24:34;7.30;;;2.53;;
5157;SDS011;2598;52.364;9.772;2022-07-18T12:37:22;9.23;;;2.50;;
5157;SDS011;2598;52.364;9.772;2022-07-18T12:39:49;10.37;;;2.90;;
5157;SDS011;2598;52.364;9.772;2022-07-18T12:45:13;8.23;;;2.70;;
5157;SDS011;2598;52.364;9.772;2022-07-18T12:47:39;8.77;;;2.33;;
5157;SDS011;2598;52.364;9.772;2022-07-18T12:50:06;7.90;;;2.70;;
5157;SDS011;2598;52.364;9.772;2022-07-18T12:52:32;7.53;;;2.30;;
5157;SDS011;2598;52.364;9.772;2022-07-18T12:54:58;8.70;;;2.60;;
5157;SDS011;2598;52.364;9.772;2022-07-18T12:57:24;9.10;;;2.43;;
5157;SDS011;2598;52.364;9.772;2022-07-18T12:59:50;7.30;;;2.30;;
5157;SDS011;2598;52.364;9.772;2022-07-18T13:02:17;8.87;;;2.83;;
5157;SDS011;2598;52.364;9.772;2022-07-18T13:04:43;11.30;;;2.70;;
5157;SDS011;2598;52.364;9.772;2022-07-18T13:07:09;7.57;;;2.67;;
5157;SDS011;2598;52.364;9.772;2022-07-18T13:09:35;8.63;;;2.50;;
5157;SDS011;2598;52.364;9.772;2022-07-18T13:12:01;7.87;;;2.10;;
5157;SDS011;2598;52.364;9.772;2022-07-18T13:14:27;9.43;;;2.83;;
5157;SDS011;2598;52.364;9.772;2022-07-18T13:16:53;9.67;;;3.00;;
5157;SDS011;2598;52.364;9.772;2022-07-18T13:19:19;7.43;;;2.20;;
5157;SDS011;2598;52.364;9.772;2022-07-18T13:21:45;12.77;;;2.70;;
5157;SDS011;2598;52.364;9.772;2022-07-18T13:24:12;7.67;;;2.50;;
5157;SDS011;2598;52.364;9.772;2022-07-18T13:26:38;10.20;;;2.73;;
5157;SDS011;2598;52.364;9.772;2022-07-18T13:29:04;10.53;;;2.77;;
5157;SDS011;2598;52.364;9.772;2022-07-18T13:31:31;8.70;;;2.43;;
5157;SDS011;2598;52.364;9.772;2022-07-18T13:33:57;7.73;;;2.50;;
5157;SDS011;2598;52.364;9.772;2022-07-18T13:36:23;9.57;;;2.80;;
5157;SDS011;2598;52.364;9.772;2022-07-18T13:38:49;8.43;;;2.87;;
5157;SDS011;2598;52.364;9.772;2022-07-18T13:41:15;7.33;;;2.20;;
5157;SDS011;2598;52.364;9.772;2022-07-18T13:43:41;8.40;;;2.70;;
5157;SDS011;2598;52.364;9.772;2022-07-18T13:46:08;9.30;;;2.70;;
5157;SDS011;2598;52.364;9.772;2022-07-18T13:48:34;8.80;;;2.67;;
5157;SDS011;2598;52.364;9.772;2022-07-18T13:51:00;7.50;;;2.30;;
5157;SDS011;2598;52.364;9.772;2022-07-18T13:53:26;10.07;;;2.37;;
5157;SDS011;2598;52.364;9.772;2022-07-18T13:55:52;8.30;;;2.63;;
5157;SDS011;2598;52.364;9.772;2022-07-18T13:58:18;10.63;;;2.67;;
5157;SDS011;2598;52.364;9.772;2022-07-18T14:00:44;7.70;;;2.40;;
5157;SDS011;2598;52.364;9.772;2022-07-18T14:03:10;8.20;;;2.50;;
5157;SDS011;2598;52.364;9.772;2022-07-18T14:05:37;7.30;;;2.50;;
5157;SDS011;2598;52.364;9.772;2022-07-18T14:08:03;8.77;;;3.00;;
5157;SDS011;2598;52.364;9.772;2022-07-18T14:10:29;9.23;;;2.60;;
5157;SDS011;2598;52.364;9.772;2022-07-18T14:12:55;6.80;;;2.20;;
5157;SDS011;2598;52.364;9.772;2022-07-18T14:15:21;8.60;;;2.10;;
5157;SDS011;2598;52.364;9.772;2022-07-18T14:17:47;10.43;;;2.37;;
5157;SDS011;2598;52.364;9.772;2022-07-18T14:20:13;8.77;;;2.50;;
5157;SDS011;2598;52.364;9.772;2022-07-18T14:22:41;7.93;;;2.13;;
5157;SDS011;2598;52.364;9.772;2022-07-18T14:25:07;9.40;;;2.47;;
5157;SDS011;2598;52.364;9.772;2022-07-18T14:27:34;7.80;;;2.63;;
5157;SDS011;2598;52.364;9.772;2022-07-18T14:30:00;7.57;;;2.23;;
5157;SDS011;2598;52.364;9.772;2022-07-18T14:32:26;7.73;;;2.90;;
5157;SDS011;2598;52.364;9.772;2022-07-18T14:34:53;8.27;;;2.70;;
5157;SDS011;2598;52.364;9.772;2022-07-18T14:37:19;10.13;;;2.77;;
5157;SDS011;2598;52.364;9.772;2022-07-18T14:39:45;6.90;;;2.20;;
5157;SDS011;2598;52.364;9.772;2022-07-18T14:42:11;7.47;;;2.53;;
5157;SDS011;2598;52.364;9.772;2022-07-18T14:44:40;8.10;;;2.47;;
5157;SDS011;2598;52.364;9.772;2022-07-18T14:47:06;7.30;;;2.40;;
5157;SDS011;2598;52.364;9.772;2022-07-18T14:49:32;7.50;;;2.50;;
5157;SDS011;2598;52.364;9.772;2022-07-18T14:51:58;8.27;;;2.57;;
5157;SDS011;2598;52.364;9.772;2022-07-18T14:54:27;7.00;;;2.10;;
5157;SDS011;2598;52.364;9.772;2022-07-18T14:56:54;7.27;;;2.20;;
5157;SDS011;2598;52.364;9.772;2022-07-18T14:59:20;9.73;;;2.30;;
5157;SDS011;2598;52.364;9.772;2022-07-18T15:01:46;9.37;;;2.47;;
5157;SDS011;2598;52.364;9.772;2022-07-18T15:04:13;7.70;;;2.57;;
5157;SDS011;2598;52.364;9.772;2022-07-18T15:06:39;11.60;;;2.63;;
5157;SDS011;2598;52.364;9.772;2022-07-18T15:09:06;7.97;;;2.20;;
5157;SDS011;2598;52.364;9.772;2022-07-18T15:11:33;7.70;;;2.30;;
5157;SDS011;2598;52.364;9.772;2022-07-18T15:13:59;7.53;;;2.10;;
5157;SDS011;2598;52.364;9.772;2022-07-18T15:16:25;9.17;;;2.27;;
5157;SDS011;2598;52.364;9.772;2022-07-18T15:18:51;9.33;;;2.47;;
5157;SDS011;2598;52.364;9.772;2022-07-18T15:21:17;9.23;;;2.40;;
5157;SDS011;2598;52.364;9.772;2022-07-18T15:23:43;7.90;;;2.30;;
5157;SDS011;2598;52.364;9.772;2022-07-18T15:26:09;6.70;;;2.00;;
5157;SDS011;2598;52.364;9.772;2022-07-18T15:28:35;9.70;;;2.47;;
5157;SDS011;2598;52.364;9.772;2022-07-18T15:31:01;7.97;;;2.07;;
5157;SDS011;2598;52.364;9.772;2022-07-18T15:33:27;11.57;;;2.23;;
5157;SDS011;2598;52.364;9.772;2022-07-18T15:35:53;8.17;;;2.30;;
5157;SDS011;2598;52.364;9.772;2022-07-18T15:38:19;8.97;;;2.10;;
5157;SDS011;2598;52.364;9.772;2022-07-18T15:40:45;9.27;;;2.43;;
5157;SDS011;2598;52.364;9.772;2022-07-18T15:43:11;7.83;;;2.13;;